createdAt,value
2022-07-26T00:04:13.659Z,99897.13
2022-07-26T00:09:17.802Z,99911.38
2022-07-26T00:14:20.615Z,99910.00
2022-07-26T00:19:23.405Z,99919.13
2022-07-26T00:24:32.272Z,99916.78
2022-07-26T00:29:37.968Z,99927.91
2022-07-26T00:34:40.983Z,99937.72
2022-07-26T00:39:45.234Z,99929.78
2022-07-26T00:44:48.090Z,99929.44
2022-07-26T00:49:50.939Z,99938.41
2022-07-26T00:54:56.201Z,99942.13
2022-07-26T01:00:01.120Z,99953.13
2022-07-26T01:05:03.961Z,99946.00
2022-07-26T01:10:12.119Z,99946.16
2022-07-26T01:15:15.879Z,99940.59
2022-07-26T01:20:18.887Z,99944.47
2022-07-26T01:25:31.265Z,99944.31
2022-07-26T01:30:34.066Z,99955.66
2022-07-26T01:35:36.887Z,99976.41
2022-07-26T01:40:41.020Z,99982.31
2022-07-26T01:45:43.913Z,99966.88
2022-07-26T01:50:46.740Z,99945.09
2022-07-26T01:55:50.864Z,99950.34
2022-07-26T02:00:53.685Z,99938.00
2022-07-26T02:05:56.485Z,99936.28
2022-07-26T02:11:04.137Z,99931.03
2022-07-26T02:16:08.755Z,99932.38
2022-07-26T02:21:11.650Z,99936.09
2022-07-26T02:26:15.795Z,99937.97
2022-07-26T02:31:18.818Z,99933.03
2022-07-26T02:36:21.763Z,99930.16
2022-07-26T02:41:27.031Z,99927.28
2022-07-26T02:46:29.937Z,99932.53
2022-07-26T02:51:32.924Z,99940.97
2022-07-26T02:56:37.041Z,99951.78
2022-07-26T03:01:40.121Z,99954.63
2022-07-26T03:06:42.951Z,99952.78
2022-07-26T03:11:47.158Z,99955.81
2022-07-26T03:16:50.106Z,99959.16
2022-07-26T03:21:52.857Z,99962.00
2022-07-26T03:26:57.109Z,99964.00
2022-07-26T03:31:59.927Z,99957.75
2022-07-26T03:37:02.682Z,99954.53
2022-07-26T03:42:07.036Z,99955.84
2022-07-26T03:47:09.876Z,99956.88
2022-07-26T03:52:12.651Z,99952.94
2022-07-26T03:57:16.743Z,99952.09
2022-07-26T04:02:19.626Z,99955.59
2022-07-26T04:07:22.391Z,99952.38
2022-07-26T04:12:31.148Z,99967.41
2022-07-26T04:17:37.961Z,99961.16
2022-07-26T04:22:40.994Z,99962.97
2022-07-26T04:27:45.130Z,99964.66
2022-07-26T04:32:47.987Z,99961.91
2022-07-26T04:37:50.818Z,99972.31
2022-07-26T04:42:55.004Z,99984.78
2022-07-26T04:47:57.822Z,99991.50
2022-07-26T04:53:00.598Z,99990.66
2022-07-26T04:58:04.911Z,99992.34
2022-07-26T05:03:07.928Z,99997.69
2022-07-26T05:08:11.120Z,100003.09
2022-07-26T05:13:15.267Z,100004.81
2022-07-26T05:18:18.263Z,100006.09
2022-07-26T05:23:21.148Z,100013.69
2022-07-26T05:28:25.283Z,100009.66
2022-07-26T05:33:28.232Z,100016.84
2022-07-26T05:38:31.064Z,100019.53
2022-07-26T05:43:40.647Z,100029.22
2022-07-26T05:48:44.628Z,100031.66
2022-07-26T05:53:47.504Z,100030.50
2022-07-26T05:58:51.615Z,100036.22
2022-07-26T06:03:54.392Z,100040.34
2022-07-26T06:08:57.196Z,100036.22
2022-07-26T06:14:01.354Z,100044.88
2022-07-26T06:19:04.190Z,100049.09
2022-07-26T06:24:07.775Z,100047.19
2022-07-26T06:29:12.052Z,100055.00
2022-07-26T06:34:14.881Z,100051.50
2022-07-26T06:39:17.689Z,100051.63
2022-07-26T06:44:22.744Z,100058.34
2022-07-26T06:49:25.756Z,100068.00
2022-07-26T06:54:28.712Z,100070.53
2022-07-26T06:59:32.931Z,100067.13
2022-07-26T07:04:35.932Z,100067.53
2022-07-26T07:09:38.824Z,100076.53
2022-07-26T07:14:43.204Z,100070.88
2022-07-26T07:19:46.105Z,100072.88
2022-07-26T07:24:48.921Z,100068.19
2022-07-26T07:29:53.252Z,100074.34
2022-07-26T07:34:56.025Z,100071.66
2022-07-26T07:39:58.838Z,100068.56
2022-07-26T07:45:02.940Z,100065.41
2022-07-26T07:50:07.520Z,100067.44
2022-07-26T07:55:36.616Z,100055.81
2022-07-26T08:00:35.174Z,100062.09
2022-07-26T08:05:40.451Z,100065.94
2022-07-26T08:10:51.794Z,100066.78
2022-07-26T08:15:56.889Z,100065.63
2022-07-26T08:21:03.367Z,100065.25
2022-07-26T08:26:07.294Z,100069.78
2022-07-26T08:31:11.504Z,100058.28
2022-07-26T08:36:14.743Z,100069.34
2022-07-26T08:41:18.047Z,100058.16
2022-07-26T08:46:26.016Z,100060.69
2022-07-26T08:51:30.176Z,100062.06
2022-07-26T08:56:33.720Z,100052.47
2022-07-26T09:01:50.783Z,100054.81
2022-07-26T09:06:58.071Z,100059.41
2022-07-26T09:12:02.250Z,100068.03
2022-07-26T09:17:07.165Z,100066.13
2022-07-26T09:22:11.533Z,100075.84
2022-07-26T09:27:15.181Z,100077.78
2022-07-26T09:32:20.479Z,100085.94
2022-07-26T09:37:44.234Z,100079.06
2022-07-26T09:42:57.395Z,100083.69
2022-07-26T09:48:01.688Z,100084.06
2022-07-26T09:53:07.784Z,100080.06
2022-07-26T09:58:10.562Z,100077.97
2022-07-26T10:03:14.820Z,100078.34
2022-07-26T10:08:18.637Z,100080.25
2022-07-26T10:13:21.381Z,100080.66
2022-07-26T10:18:45.254Z,100078.63
2022-07-26T10:23:48.464Z,100080.03
2022-07-26T10:28:51.214Z,100078.03
2022-07-26T10:33:55.702Z,100076.47
2022-07-26T10:39:07.342Z,100077.03
2022-07-26T10:44:17.157Z,100082.66
2022-07-26T10:49:21.395Z,100069.34
2022-07-26T10:54:24.173Z,100061.44
2022-07-26T10:59:54.468Z,100055.41
2022-07-26T11:05:01.753Z,100065.91
2022-07-26T11:10:05.325Z,100065.25
2022-07-26T11:15:16.253Z,100069.66
2022-07-26T11:20:29.847Z,100079.81
2022-07-26T11:25:32.890Z,100092.50
2022-07-26T11:30:35.658Z,100100.28
2022-07-26T11:35:50.735Z,100107.31
2022-07-26T11:40:53.518Z,100095.38
2022-07-26T11:45:56.317Z,100099.59
2022-07-26T11:51:11.446Z,100101.53
2022-07-26T11:56:15.732Z,100093.63
2022-07-26T12:01:19.850Z,100088.28
2022-07-26T12:06:24.796Z,100079.22
2022-07-26T12:11:41.701Z,100080.25
2022-07-26T12:16:45.220Z,100077.53
2022-07-26T12:21:50.239Z,100083.94
2022-07-26T12:27:05.483Z,100081.22
2022-07-26T12:32:12.433Z,100092.75
2022-07-26T12:37:18.233Z,100083.28
2022-07-26T12:42:33.480Z,100089.88
2022-07-26T12:47:37.697Z,100090.06
2022-07-26T12:52:41.923Z,100090.72
2022-07-26T12:57:45.982Z,100092.09
2022-07-26T13:02:51.221Z,100090.94
2022-07-26T13:07:55.495Z,100095.16
2022-07-26T13:12:58.279Z,100101.34
2022-07-26T13:18:01.130Z,100107.22
2022-07-26T13:23:05.303Z,100108.66
2022-07-26T13:28:09.092Z,100114.19
2022-07-26T13:33:12.163Z,100114.78
2022-07-26T13:38:19.056Z,100113.78
2022-07-26T13:43:21.940Z,100111.50
2022-07-26T13:48:24.668Z,100101.97
2022-07-26T13:53:29.963Z,100106.91
2022-07-26T13:58:32.717Z,100144.00
2022-07-26T14:03:35.748Z,100151.88
2022-07-26T14:08:40.313Z,100166.31
2022-07-26T14:13:43.233Z,100165.94
2022-07-26T14:18:46.042Z,100177.94
2022-07-26T14:23:50.460Z,100189.47
2022-07-26T14:28:53.401Z,100199.81
2022-07-26T14:33:56.239Z,100193.75
2022-07-26T14:39:00.621Z,100185.03
2022-07-26T14:44:03.381Z,100190.22
2022-07-26T14:49:06.222Z,100187.59
2022-07-26T14:54:13.744Z,100178.03
2022-07-26T14:59:18.166Z,100175.19
2022-07-26T15:04:21.202Z,100187.25
2022-07-26T15:09:25.282Z,100180.31
2022-07-26T15:14:28.024Z,100176.44
2022-07-26T15:19:30.971Z,100175.41
2022-07-26T15:24:39.608Z,100175.81
2022-07-26T15:29:43.136Z,100181.75
2022-07-26T15:34:45.947Z,100182.09
2022-07-26T15:39:50.212Z,100191.44
2022-07-26T15:44:54.744Z,100181.88
2022-07-26T15:49:57.657Z,100180.91
2022-07-26T15:55:01.787Z,100188.69
2022-07-26T16:00:11.045Z,100186.34
2022-07-26T16:05:15.215Z,100192.94
2022-07-26T16:10:19.565Z,100192.00
2022-07-26T16:15:22.353Z,100190.28
2022-07-26T16:20:25.100Z,100183.25
2022-07-26T16:25:29.201Z,100175.59
2022-07-26T16:30:31.953Z,100182.84
2022-07-26T16:35:34.865Z,100180.16
2022-07-26T16:40:38.964Z,100178.13
2022-07-26T16:45:41.818Z,100185.25
2022-07-26T16:50:44.605Z,100179.34
2022-07-26T16:55:51.816Z,100186.22
2022-07-26T17:00:54.941Z,100179.97
2022-07-26T17:06:00.781Z,100181.22
2022-07-26T17:11:08.861Z,100183.78
2022-07-26T17:16:11.776Z,100178.66
2022-07-26T17:21:14.743Z,100196.38
2022-07-26T17:26:19.034Z,100201.13
2022-07-26T17:31:22.023Z,100201.13
2022-07-26T17:36:25.790Z,100200.78
2022-07-26T17:41:33.102Z,100205.53
2022-07-26T17:46:36.664Z,100200.28
2022-07-26T17:51:39.881Z,100203.94
2022-07-26T17:56:45.493Z,100209.97
2022-07-26T18:01:50.687Z,100210.97
2022-07-26T18:07:00.833Z,100219.19
2022-07-26T18:12:06.686Z,100218.94
2022-07-26T18:17:09.643Z,100220.25
2022-07-26T18:22:12.677Z,100226.22
2022-07-26T18:27:16.928Z,100229.91
2022-07-26T18:32:19.694Z,100226.81
2022-07-26T18:37:22.442Z,100228.72
2022-07-26T18:42:26.830Z,100229.16
2022-07-26T18:47:29.593Z,100222.03
2022-07-26T18:52:32.906Z,100220.66
2022-07-26T18:57:37.257Z,100231.66
2022-07-26T19:02:40.442Z,100241.47
2022-07-26T19:07:43.256Z,100243.75
2022-07-26T19:12:48.332Z,100247.22
2022-07-26T19:17:51.327Z,100251.00
2022-07-26T19:22:54.078Z,100250.56
2022-07-26T19:27:58.308Z,100256.25
2022-07-26T19:33:01.054Z,100269.56
2022-07-26T19:38:03.858Z,100269.56
2022-07-26T19:43:07.953Z,100272.72
2022-07-26T19:48:10.877Z,100271.72
2022-07-26T19:53:13.785Z,100279.38
2022-07-26T19:58:18.456Z,100282.25
2022-07-26T20:03:21.362Z,100291.22
2022-07-26T20:08:24.248Z,100290.00
2022-07-26T20:13:28.584Z,100286.66
2022-07-26T20:18:31.440Z,100306.09
2022-07-26T20:23:34.241Z,100303.03
2022-07-26T20:28:38.326Z,100300.31
2022-07-26T20:33:41.113Z,100305.28
2022-07-26T20:38:47.024Z,100311.53
2022-07-26T20:43:53.702Z,100316.25
2022-07-26T20:48:59.683Z,100315.50
2022-07-26T20:54:03.207Z,100316.00
2022-07-26T20:59:07.340Z,100324.91
2022-07-26T21:04:10.097Z,100329.22
2022-07-26T21:09:13.250Z,100331.41
2022-07-26T21:14:17.544Z,100334.03
2022-07-26T21:19:20.455Z,100344.13
2022-07-26T21:24:23.236Z,100344.50
2022-07-26T21:29:27.436Z,100338.03
2022-07-26T21:34:30.231Z,100349.41
2022-07-26T21:39:33.187Z,100347.56
2022-07-26T21:44:37.307Z,100352.41
2022-07-26T21:49:40.084Z,100352.78
2022-07-26T21:54:42.820Z,100362.22
2022-07-26T21:59:47.105Z,100367.34
2022-07-26T22:04:49.894Z,100379.16
2022-07-26T22:09:52.719Z,100380.06
2022-07-26T22:14:56.808Z,100380.84
2022-07-26T22:19:59.592Z,100381.19
2022-07-26T22:25:02.366Z,100383.66
2022-07-26T22:30:08.037Z,100381.06
2022-07-26T22:35:10.797Z,100389.19
2022-07-26T22:40:13.854Z,100394.38
2022-07-26T22:45:18.164Z,100383.53
2022-07-26T22:50:21.180Z,100386.53
2022-07-26T22:55:23.898Z,100382.84
2022-07-26T23:00:28.006Z,100385.09
2022-07-26T23:05:46.089Z,100380.16
2022-07-26T23:10:50.213Z,100387.25
2022-07-26T23:16:00.059Z,100391.66
2022-07-26T23:21:04.254Z,100384.31
2022-07-26T23:26:07.182Z,100388.25
2022-07-26T23:31:11.999Z,100390.25
2022-07-26T23:36:14.925Z,100387.84
2022-07-26T23:41:18.879Z,100394.13
2022-07-26T23:46:23.050Z,100383.28
2022-07-26T23:51:25.890Z,100381.91
2022-07-26T23:56:28.590Z,100387.16
